sensor_id;sensor_type;location;lat;lon;timestamp;temperature;humidity
71436;SHT31;59251;51.326;12.370;2022-09-09T00:00:19;15.12;86.91
71436;SHT31;59251;51.326;12.370;2022-09-09T00:05:45;15.00;87.47
71436;SHT31;59251;51.326;12.370;2022-09-09T00:08:20;15.01;87.67
71436;SHT31;59251;51.326;12.370;2022-09-09T00:10:52;14.95;87.93
71436;SHT31;59251;51.326;12.370;2022-09-09T00:13:40;14.90;87.74
71436;SHT31;59251;51.326;12.370;2022-09-09T00:16:17;14.88;88.01
71436;SHT31;59251;51.326;12.370;2022-09-09T00:18:57;14.88;88.12
71436;SHT31;59251;51.326;12.370;2022-09-09T00:21:33;14.83;88.08
71436;SHT31;59251;51.326;12.370;2022-09-09T00:24:01;14.77;88.22
71436;SHT31;59251;51.326;12.370;2022-09-09T00:26:39;14.79;87.99
71436;SHT31;59251;51.326;12.370;2022-09-09T00:29:12;14.79;87.87
71436;SHT31;59251;51.326;12.370;2022-09-09T00:31:39;14.83;87.63
71436;SHT31;59251;51.326;12.370;2022-09-09T00:34:12;14.81;87.59
71436;SHT31;59251;51.326;12.370;2022-09-09T00:36:39;14.83;87.48
71436;SHT31;59251;51.326;12.370;2022-09-09T00:39:09;14.77;87.45
71436;SHT31;59251;51.326;12.370;2022-09-09T00:49:56;14.76;87.38
71436;SHT31;59251;51.326;12.370;2022-09-09T00:52:56;14.70;87.51
71436;SHT31;59251;51.326;12.370;2022-09-09T00:55:49;14.66;87.71
71436;SHT31;59251;51.326;12.370;2022-09-09T00:58:16;14.59;87.90
71436;SHT31;59251;51.326;12.370;2022-09-09T01:01:05;14.59;87.94
71436;SHT31;59251;51.326;12.370;2022-09-09T01:03:59;14.62;87.76
71436;SHT31;59251;51.326;12.370;2022-09-09T01:06:34;14.56;87.95
71436;SHT31;59251;51.326;12.370;2022-09-09T01:16:51;14.53;87.94
71436;SHT31;59251;51.326;12.370;2022-09-09T01:27:34;14.64;87.77
71436;SHT31;59251;51.326;12.370;2022-09-09T01:30:02;14.59;87.75
71436;SHT31;59251;51.326;12.370;2022-09-09T01:32:41;14.60;87.74
71436;SHT31;59251;51.326;12.370;2022-09-09T01:35:14;14.63;87.87
71436;SHT31;59251;51.326;12.370;2022-09-09T01:37:40;14.57;87.68
71436;SHT31;59251;51.326;12.370;2022-09-09T01:40:06;14.59;87.97
71436;SHT31;59251;51.326;12.370;2022-09-09T01:42:32;14.57;87.87
71436;SHT31;59251;51.326;12.370;2022-09-09T01:44:57;14.62;87.94
71436;SHT31;59251;51.326;12.370;2022-09-09T01:47:23;14.57;87.80
71436;SHT31;59251;51.326;12.370;2022-09-09T01:49:48;14.60;87.81
71436;SHT31;59251;51.326;12.370;2022-09-09T01:52:13;14.57;87.90
71436;SHT31;59251;51.326;12.370;2022-09-09T01:54:39;14.56;87.92
71436;SHT31;59251;51.326;12.370;2022-09-09T01:57:11;14.60;87.84
71436;SHT31;59251;51.326;12.370;2022-09-09T02:02:18;14.59;87.82
71436;SHT31;59251;51.326;12.370;2022-09-09T02:04:47;14.57;87.64
71436;SHT31;59251;51.326;12.370;2022-09-09T02:07:48;14.52;87.86
71436;SHT31;59251;51.326;12.370;2022-09-09T02:12:42;14.50;87.94
71436;SHT31;59251;51.326;12.370;2022-09-09T02:17:49;14.40;88.40
71436;SHT31;59251;51.326;12.370;2022-09-09T02:20:18;14.40;88.45
71436;SHT31;59251;51.326;12.370;2022-09-09T02:22:46;14.42;88.38
71436;SHT31;59251;51.326;12.370;2022-09-09T02:25:14;14.45;88.47
71436;SHT31;59251;51.326;12.370;2022-09-09T02:27:43;14.40;88.88
71436;SHT31;59251;51.326;12.370;2022-09-09T02:30:10;14.40;88.92
71436;SHT31;59251;51.326;12.370;2022-09-09T02:32:37;14.43;88.72
71436;SHT31;59251;51.326;12.370;2022-09-09T02:35:10;14.42;88.65
71436;SHT31;59251;51.326;12.370;2022-09-09T02:37:39;14.45;88.62
71436;SHT31;59251;51.326;12.370;2022-09-09T02:40:06;14.36;88.91
71436;SHT31;59251;51.326;12.370;2022-09-09T02:42:38;14.42;88.72
71436;SHT31;59251;51.326;12.370;2022-09-09T02:45:05;14.39;88.76
71436;SHT31;59251;51.326;12.370;2022-09-09T02:47:35;14.39;88.79
71436;SHT31;59251;51.326;12.370;2022-09-09T02:50:15;14.35;89.22
71436;SHT31;59251;51.326;12.370;2022-09-09T02:55:20;14.32;89.08
71436;SHT31;59251;51.326;12.370;2022-09-09T02:57:49;14.26;89.03
71436;SHT31;59251;51.326;12.370;2022-09-09T03:00:15;14.28;89.18
71436;SHT31;59251;51.326;12.370;2022-09-09T03:02:41;14.25;89.25
71436;SHT31;59251;51.326;12.370;2022-09-09T03:05:07;14.26;89.10
71436;SHT31;59251;51.326;12.370;2022-09-09T03:07:33;14.39;89.30
71436;SHT31;59251;51.326;12.370;2022-09-09T03:09:58;14.36;89.31
71436;SHT31;59251;51.326;12.370;2022-09-09T03:12:24;14.26;89.23
71436;SHT31;59251;51.326;12.370;2022-09-09T03:14:49;14.30;89.19
71436;SHT31;59251;51.326;12.370;2022-09-09T03:17:15;14.32;88.88
71436;SHT31;59251;51.326;12.370;2022-09-09T03:19:40;14.33;88.56
71436;SHT31;59251;51.326;12.370;2022-09-09T03:22:06;14.36;88.53
71436;SHT31;59251;51.326;12.370;2022-09-09T03:24:31;14.42;88.41
71436;SHT31;59251;51.326;12.370;2022-09-09T03:26:57;14.45;88.21
71436;SHT31;59251;51.326;12.370;2022-09-09T03:29:22;14.46;88.18
71436;SHT31;59251;51.326;12.370;2022-09-09T03:31:48;14.37;88.40
71436;SHT31;59251;51.326;12.370;2022-09-09T03:34:13;14.42;88.36
71436;SHT31;59251;51.326;12.370;2022-09-09T03:36:41;14.39;88.42
71436;SHT31;59251;51.326;12.370;2022-09-09T03:39:06;14.35;88.54
71436;SHT31;59251;51.326;12.370;2022-09-09T03:41:32;14.35;88.45
71436;SHT31;59251;51.326;12.370;2022-09-09T03:43:57;14.40;88.25
71436;SHT31;59251;51.326;12.370;2022-09-09T03:46:25;14.39;88.37
71436;SHT31;59251;51.326;12.370;2022-09-09T03:48:50;14.37;88.35
71436;SHT31;59251;51.326;12.370;2022-09-09T03:51:17;14.32;88.52
71436;SHT31;59251;51.326;12.370;2022-09-09T03:53:43;14.30;88.74
71436;SHT31;59251;51.326;12.370;2022-09-09T03:56:08;14.26;88.84
71436;SHT31;59251;51.326;12.370;2022-09-09T03:58:34;14.29;88.74
71436;SHT31;59251;51.326;12.370;2022-09-09T04:01:06;14.29;88.73
71436;SHT31;59251;51.326;12.370;2022-09-09T04:03:34;14.26;88.84
71436;SHT31;59251;51.326;12.370;2022-09-09T04:06:00;14.26;88.64
71436;SHT31;59251;51.326;12.370;2022-09-09T04:08:27;14.30;88.46
71436;SHT31;59251;51.326;12.370;2022-09-09T04:10:53;14.33;88.37
71436;SHT31;59251;51.326;12.370;2022-09-09T04:13:19;14.33;88.33
71436;SHT31;59251;51.326;12.370;2022-09-09T04:15:51;14.28;88.20
71436;SHT31;59251;51.326;12.370;2022-09-09T04:18:17;14.40;88.06
71436;SHT31;59251;51.326;12.370;2022-09-09T04:20:42;14.35;88.06
71436;SHT31;59251;51.326;12.370;2022-09-09T04:23:08;14.33;88.05
71436;SHT31;59251;51.326;12.370;2022-09-09T04:25:34;14.29;88.20
71436;SHT31;59251;51.326;12.370;2022-09-09T04:27:59;14.33;88.35
71436;SHT31;59251;51.326;12.370;2022-09-09T04:30:25;14.40;88.17
71436;SHT31;59251;51.326;12.370;2022-09-09T04:32:52;14.42;87.91
71436;SHT31;59251;51.326;12.370;2022-09-09T04:35:18;14.46;87.88
71436;SHT31;59251;51.326;12.370;2022-09-09T04:37:45;14.37;87.98
71436;SHT31;59251;51.326;12.370;2022-09-09T04:40:10;14.30;88.15
71436;SHT31;59251;51.326;12.370;2022-09-09T04:42:36;14.45;87.73
71436;SHT31;59251;51.326;12.370;2022-09-09T04:45:03;14.28;88.30
71436;SHT31;59251;51.326;12.370;2022-09-09T04:47:28;14.36;88.22
71436;SHT31;59251;51.326;12.370;2022-09-09T04:49:53;14.47;88.27
71436;SHT31;59251;51.326;12.370;2022-09-09T04:52:20;14.49;87.55
71436;SHT31;59251;51.326;12.370;2022-09-09T04:54:45;14.52;87.35
71436;SHT31;59251;51.326;12.370;2022-09-09T04:57:11;14.56;87.29
71436;SHT31;59251;51.326;12.370;2022-09-09T04:59:36;14.42;87.50
71436;SHT31;59251;51.326;12.370;2022-09-09T05:02:03;14.46;87.55
71436;SHT31;59251;51.326;12.370;2022-09-09T05:04:29;14.49;87.39
71436;SHT31;59251;51.326;12.370;2022-09-09T05:06:54;14.45;87.23
71436;SHT31;59251;51.326;12.370;2022-09-09T05:09:20;14.62;86.75
71436;SHT31;59251;51.326;12.370;2022-09-09T05:11:46;14.57;86.88
71436;SHT31;59251;51.326;12.370;2022-09-09T05:14:11;14.74;86.04
71436;SHT31;59251;51.326;12.370;2022-09-09T05:16:37;14.84;86.15
71436;SHT31;59251;51.326;12.370;2022-09-09T05:19:03;14.79;85.92
71436;SHT31;59251;51.326;12.370;2022-09-09T05:21:28;14.80;85.91
71436;SHT31;59251;51.326;12.370;2022-09-09T05:23:56;14.81;86.06
71436;SHT31;59251;51.326;12.370;2022-09-09T05:26:22;14.73;86.06
71436;SHT31;59251;51.326;12.370;2022-09-09T05:31:16;14.94;85.73
71436;SHT31;59251;51.326;12.370;2022-09-09T05:33:44;15.11;84.86
71436;SHT31;59251;51.326;12.370;2022-09-09T05:36:12;15.05;85.00
71436;SHT31;59251;51.326;12.370;2022-09-09T05:38:38;15.14;84.80
71436;SHT31;59251;51.326;12.370;2022-09-09T05:41:04;15.15;85.00
71436;SHT31;59251;51.326;12.370;2022-09-09T05:43:30;15.12;84.98
71436;SHT31;59251;51.326;12.370;2022-09-09T05:46:02;15.24;84.86
71436;SHT31;59251;51.326;12.370;2022-09-09T05:48:32;15.15;84.52
71436;SHT31;59251;51.326;12.370;2022-09-09T05:50:59;15.12;84.94
71436;SHT31;59251;51.326;12.370;2022-09-09T05:53:28;15.25;84.73
71436;SHT31;59251;51.326;12.370;2022-09-09T05:56:04;15.31;84.51
71436;SHT31;59251;51.326;12.370;2022-09-09T05:58:34;15.38;84.32
71436;SHT31;59251;51.326;12.370;2022-09-09T06:03:32;15.34;84.33
71436;SHT31;59251;51.326;12.370;2022-09-09T06:06:02;15.31;84.51
71436;SHT31;59251;51.326;12.370;2022-09-09T06:08:30;15.56;83.96
71436;SHT31;59251;51.326;12.370;2022-09-09T06:11:01;15.60;84.09
71436;SHT31;59251;51.326;12.370;2022-09-09T06:13:27;15.59;84.15
71436;SHT31;59251;51.326;12.370;2022-09-09T06:15:53;15.82;83.77
71436;SHT31;59251;51.326;12.370;2022-09-09T06:18:19;16.04;82.88
71436;SHT31;59251;51.326;12.370;2022-09-09T06:20:58;16.08;82.69
71436;SHT31;59251;51.326;12.370;2022-09-09T06:23:24;16.16;82.24
71436;SHT31;59251;51.326;12.370;2022-09-09T06:25:50;16.11;82.15
71436;SHT31;59251;51.326;12.370;2022-09-09T06:28:16;16.11;82.24
71436;SHT31;59251;51.326;12.370;2022-09-09T06:30:42;16.16;81.97
71436;SHT31;59251;51.326;12.370;2022-09-09T06:33:08;16.28;81.50
71436;SHT31;59251;51.326;12.370;2022-09-09T06:35:34;16.29;81.66
71436;SHT31;59251;51.326;12.370;2022-09-09T06:38:00;16.28;81.22
71436;SHT31;59251;51.326;12.370;2022-09-09T06:40:25;16.49;81.12
71436;SHT31;59251;51.326;12.370;2022-09-09T06:42:50;16.55;80.87
71436;SHT31;59251;51.326;12.370;2022-09-09T06:45:17;16.48;81.11
71436;SHT31;59251;51.326;12.370;2022-09-09T06:47:43;16.45;80.97
71436;SHT31;59251;51.326;12.370;2022-09-09T06:50:08;16.66;80.39
71436;SHT31;59251;51.326;12.370;2022-09-09T06:52:36;16.64;80.69
71436;SHT31;59251;51.326;12.370;2022-09-09T06:55:01;16.77;80.22
71436;SHT31;59251;51.326;12.370;2022-09-09T06:57:27;16.77;79.89
71436;SHT31;59251;51.326;12.370;2022-09-09T06:59:53;16.84;79.87
71436;SHT31;59251;51.326;12.370;2022-09-09T07:02:18;16.93;79.83
71436;SHT31;59251;51.326;12.370;2022-09-09T07:04:44;17.16;78.91
71436;SHT31;59251;51.326;12.370;2022-09-09T07:07:09;17.09;79.56
71436;SHT31;59251;51.326;12.370;2022-09-09T07:09:37;16.97;79.69
71436;SHT31;59251;51.326;12.370;2022-09-09T07:12:03;17.06;79.24
71436;SHT31;59251;51.326;12.370;2022-09-09T07:14:30;17.28;78.59
71436;SHT31;59251;51.326;12.370;2022-09-09T07:16:56;17.37;78.54
71436;SHT31;59251;51.326;12.370;2022-09-09T07:19:22;17.54;77.83
71436;SHT31;59251;51.326;12.370;2022-09-09T07:21:47;18.17;76.16
71436;SHT31;59251;51.326;12.370;2022-09-09T07:24:13;17.89;76.42
71436;SHT31;59251;51.326;12.370;2022-09-09T07:26:39;17.88;76.55
71436;SHT31;59251;51.326;12.370;2022-09-09T07:29:05;17.93;76.57
71436;SHT31;59251;51.326;12.370;2022-09-09T07:31:33;17.75;76.82
71436;SHT31;59251;51.326;12.370;2022-09-09T07:33:59;17.98;76.34
71436;SHT31;59251;51.326;12.370;2022-09-09T07:36:29;18.17;75.72
71436;SHT31;59251;51.326;12.370;2022-09-09T07:38:57;18.37;74.89
71436;SHT31;59251;51.326;12.370;2022-09-09T07:41:26;18.47;74.44
71436;SHT31;59251;51.326;12.370;2022-09-09T07:43:52;18.37;75.16
71436;SHT31;59251;51.326;12.370;2022-09-09T07:46:19;18.34;75.01
71436;SHT31;59251;51.326;12.370;2022-09-09T07:48:47;18.23;75.50
71436;SHT31;59251;51.326;12.370;2022-09-09T07:51:18;18.40;75.15
71436;SHT31;59251;51.326;12.370;2022-09-09T07:53:46;18.83;74.49
71436;SHT31;59251;51.326;12.370;2022-09-09T07:56:17;18.92;74.18
71436;SHT31;59251;51.326;12.370;2022-09-09T07:58:45;19.01;73.57
71436;SHT31;59251;51.326;12.370;2022-09-09T08:01:19;19.16;73.49
71436;SHT31;59251;51.326;12.370;2022-09-09T08:03:46;19.73;71.86
71436;SHT31;59251;51.326;12.370;2022-09-09T08:06:12;19.75;72.40
71436;SHT31;59251;51.326;12.370;2022-09-09T08:08:39;19.97;72.19
71436;SHT31;59251;51.326;12.370;2022-09-09T08:11:14;20.38;70.66
71436;SHT31;59251;51.326;12.370;2022-09-09T08:13:41;19.69;71.70
71436;SHT31;59251;51.326;12.370;2022-09-09T08:16:18;20.59;70.34
71436;SHT31;59251;51.326;12.370;2022-09-09T08:18:47;20.60;70.23
71436;SHT31;59251;51.326;12.370;2022-09-09T08:21:21;20.94;68.88
71436;SHT31;59251;51.326;12.370;2022-09-09T08:23:47;20.15;70.59
71436;SHT31;59251;51.326;12.370;2022-09-09T08:26:15;20.17;71.11
71436;SHT31;59251;51.326;12.370;2022-09-09T08:28:41;20.04;70.79
71436;SHT31;59251;51.326;12.370;2022-09-09T08:31:13;20.22;71.43
71436;SHT31;59251;51.326;12.370;2022-09-09T08:33:39;19.92;71.33
71436;SHT31;59251;51.326;12.370;2022-09-09T08:36:06;20.32;70.65
71436;SHT31;59251;51.326;12.370;2022-09-09T08:38:34;19.97;72.03
71436;SHT31;59251;51.326;12.370;2022-09-09T08:41:23;20.11;71.34
71436;SHT31;59251;51.326;12.370;2022-09-09T08:44:08;20.01;72.46
71436;SHT31;59251;51.326;12.370;2022-09-09T08:57:52;20.35;71.51
71436;SHT31;59251;51.326;12.370;2022-09-09T09:00:18;20.60;70.64
71436;SHT31;59251;51.326;12.370;2022-09-09T09:03:07;20.65;70.14
71436;SHT31;59251;51.326;12.370;2022-09-09T09:05:42;20.83;69.46
71436;SHT31;59251;51.326;12.370;2022-09-09T09:08:43;20.80;69.76
71436;SHT31;59251;51.326;12.370;2022-09-09T09:11:10;21.05;69.72
71436;SHT31;59251;51.326;12.370;2022-09-09T09:13:46;21.14;69.48
71436;SHT31;59251;51.326;12.370;2022-09-09T09:16:35;21.56;67.63
71436;SHT31;59251;51.326;12.370;2022-09-09T09:19:04;21.61;67.56
71436;SHT31;59251;51.326;12.370;2022-09-09T09:24:00;21.75;65.77
71436;SHT31;59251;51.326;12.370;2022-09-09T09:26:31;22.17;64.59
71436;SHT31;59251;51.326;12.370;2022-09-09T09:28:58;22.00;65.25
71436;SHT31;59251;51.326;12.370;2022-09-09T09:31:24;22.38;63.74
71436;SHT31;59251;51.326;12.370;2022-09-09T09:33:53;22.41;63.17
71436;SHT31;59251;51.326;12.370;2022-09-09T09:36:21;22.62;62.27
71436;SHT31;59251;51.326;12.370;2022-09-09T09:38:54;22.03;62.91
71436;SHT31;59251;51.326;12.370;2022-09-09T09:41:52;22.72;62.13
71436;SHT31;59251;51.326;12.370;2022-09-09T09:44:30;23.13;61.37
71436;SHT31;59251;51.326;12.370;2022-09-09T09:47:12;23.30;61.25
71436;SHT31;59251;51.326;12.370;2022-09-09T09:49:38;22.88;62.01
71436;SHT31;59251;51.326;12.370;2022-09-09T09:52:05;22.89;63.06
71436;SHT31;59251;51.326;12.370;2022-09-09T09:54:34;23.05;62.73
71436;SHT31;59251;51.326;12.370;2022-09-09T09:57:14;22.69;63.15
71436;SHT31;59251;51.326;12.370;2022-09-09T09:59:40;22.68;63.08
71436;SHT31;59251;51.326;12.370;2022-09-09T10:02:31;22.40;63.75
71436;SHT31;59251;51.326;12.370;2022-09-09T10:05:14;22.68;63.70
71436;SHT31;59251;51.326;12.370;2022-09-09T10:07:41;22.13;64.60
71436;SHT31;59251;51.326;12.370;2022-09-09T10:10:15;22.30;64.69
71436;SHT31;59251;51.326;12.370;2022-09-09T10:15:38;22.78;62.80
71436;SHT31;59251;51.326;12.370;2022-09-09T10:24:23;22.55;64.42
71436;SHT31;59251;51.326;12.370;2022-09-09T10:35:25;23.36;62.18
71436;SHT31;59251;51.326;12.370;2022-09-09T10:38:11;23.42;61.28
71436;SHT31;59251;51.326;12.370;2022-09-09T10:46:46;22.61;63.89
71436;SHT31;59251;51.326;12.370;2022-09-09T10:55:09;23.20;62.60
71436;SHT31;59251;51.326;12.370;2022-09-09T10:57:40;23.49;61.41
71436;SHT31;59251;51.326;12.370;2022-09-09T11:00:17;23.67;61.05
71436;SHT31;59251;51.326;12.370;2022-09-09T11:02:43;23.55;61.57
71436;SHT31;59251;51.326;12.370;2022-09-09T11:05:10;23.61;60.33
71436;SHT31;59251;51.326;12.370;2022-09-09T11:07:47;23.55;60.48
71436;SHT31;59251;51.326;12.370;2022-09-09T11:10:20;24.01;60.19
71436;SHT31;59251;51.326;12.370;2022-09-09T11:12:51;23.81;59.31
71436;SHT31;59251;51.326;12.370;2022-09-09T11:15:31;23.43;59.73
71436;SHT31;59251;51.326;12.370;2022-09-09T11:18:01;23.34;60.19
71436;SHT31;59251;51.326;12.370;2022-09-09T11:20:27;23.14;60.72
71436;SHT31;59251;51.326;12.370;2022-09-09T11:23:01;23.14;60.61
71436;SHT31;59251;51.326;12.370;2022-09-09T11:25:37;23.53;59.84
71436;SHT31;59251;51.326;12.370;2022-09-09T11:36:35;24.61;55.09
71436;SHT31;59251;51.326;12.370;2022-09-09T11:44:39;23.81;56.70
71436;SHT31;59251;51.326;12.370;2022-09-09T11:47:28;23.50;58.13
71436;SHT31;59251;51.326;12.370;2022-09-09T11:52:42;24.81;55.59
71436;SHT31;59251;51.326;12.370;2022-09-09T11:55:31;24.18;56.78
71436;SHT31;59251;51.326;12.370;2022-09-09T11:58:03;24.57;55.49
71436;SHT31;59251;51.326;12.370;2022-09-09T12:00:34;25.52;52.38
71436;SHT31;59251;51.326;12.370;2022-09-09T12:03:00;25.91;51.08
71436;SHT31;59251;51.326;12.370;2022-09-09T12:05:37;25.05;52.68
71436;SHT31;59251;51.326;12.370;2022-09-09T12:08:03;26.05;51.56
71436;SHT31;59251;51.326;12.370;2022-09-09T12:10:32;26.49;51.11
71436;SHT31;59251;51.326;12.370;2022-09-09T12:13:27;26.85;50.97
71436;SHT31;59251;51.326;12.370;2022-09-09T12:15:55;27.20;49.19
71436;SHT31;59251;51.326;12.370;2022-09-09T12:18:37;26.78;50.77
71436;SHT31;59251;51.326;12.370;2022-09-09T12:21:21;26.92;49.58
71436;SHT31;59251;51.326;12.370;2022-09-09T12:23:58;27.44;48.95
71436;SHT31;59251;51.326;12.370;2022-09-09T12:26:34;25.52;52.96
71436;SHT31;59251;51.326;12.370;2022-09-09T12:32:14;25.81;52.98
71436;SHT31;59251;51.326;12.370;2022-09-09T12:34:46;26.89;50.74
71436;SHT31;59251;51.326;12.370;2022-09-09T12:40:30;28.17;45.01
71436;SHT31;59251;51.326;12.370;2022-09-09T12:42:58;27.85;45.20
71436;SHT31;59251;51.326;12.370;2022-09-09T12:45:28;27.91;44.74
71436;SHT31;59251;51.326;12.370;2022-09-09T12:48:07;28.48;44.59
71436;SHT31;59251;51.326;12.370;2022-09-09T12:50:36;28.95;44.14
71436;SHT31;59251;51.326;12.370;2022-09-09T12:53:12;29.74;43.09
71436;SHT31;59251;51.326;12.370;2022-09-09T12:55:52;28.65;44.34
71436;SHT31;59251;51.326;12.370;2022-09-09T12:58:19;29.15;43.92
71436;SHT31;59251;51.326;12.370;2022-09-09T13:00:53;28.20;44.68
71436;SHT31;59251;51.326;12.370;2022-09-09T13:03:22;29.49;42.62
71436;SHT31;59251;51.326;12.370;2022-09-09T13:05:48;28.72;44.40
71436;SHT31;59251;51.326;12.370;2022-09-09T13:08:15;27.86;44.96
71436;SHT31;59251;51.326;12.370;2022-09-09T13:10:50;27.38;44.94
71436;SHT31;59251;51.326;12.370;2022-09-09T13:13:22;27.69;44.91
71436;SHT31;59251;51.326;12.370;2022-09-09T13:15:54;26.83;47.23
71436;SHT31;59251;51.326;12.370;2022-09-09T13:18:22;27.23;45.96
71436;SHT31;59251;51.326;12.370;2022-09-09T13:20:49;26.45;47.23
71436;SHT31;59251;51.326;12.370;2022-09-09T13:23:16;25.16;51.04
71436;SHT31;59251;51.326;12.370;2022-09-09T13:25:56;25.53;49.51
71436;SHT31;59251;51.326;12.370;2022-09-09T13:28:24;25.19;50.85
71436;SHT31;59251;51.326;12.370;2022-09-09T13:31:19;25.29;50.75
71436;SHT31;59251;51.326;12.370;2022-09-09T13:33:45;25.22;51.19
71436;SHT31;59251;51.326;12.370;2022-09-09T13:36:12;24.97;51.90
71436;SHT31;59251;51.326;12.370;2022-09-09T13:41:36;24.37;53.38
71436;SHT31;59251;51.326;12.370;2022-09-09T13:44:19;23.95;55.20
71436;SHT31;59251;51.326;12.370;2022-09-09T13:46:45;24.26;53.83
71436;SHT31;59251;51.326;12.370;2022-09-09T13:51:44;23.97;56.27
71436;SHT31;59251;51.326;12.370;2022-09-09T13:54:13;23.65;57.97
71436;SHT31;59251;51.326;12.370;2022-09-09T13:56:41;22.75;60.57
71436;SHT31;59251;51.326;12.370;2022-09-09T13:59:12;22.11;63.17
71436;SHT31;59251;51.326;12.370;2022-09-09T14:01:38;19.98;65.52
71436;SHT31;59251;51.326;12.370;2022-09-09T14:04:03;18.89;71.49
71436;SHT31;59251;51.326;12.370;2022-09-09T14:06:31;18.37;75.05
71436;SHT31;59251;51.326;12.370;2022-09-09T14:08:57;18.32;74.57
71436;SHT31;59251;51.326;12.370;2022-09-09T14:11:23;18.78;73.28
71436;SHT31;59251;51.326;12.370;2022-09-09T14:13:48;19.33;70.16
71436;SHT31;59251;51.326;12.370;2022-09-09T14:16:17;18.79;75.59
71436;SHT31;59251;51.326;12.370;2022-09-09T14:18:44;19.12;71.67
71436;SHT31;59251;51.326;12.370;2022-09-09T14:21:10;19.02;75.28
71436;SHT31;59251;51.326;12.370;2022-09-09T14:23:36;19.06;74.33
71436;SHT31;59251;51.326;12.370;2022-09-09T14:26:04;19.33;74.92
71436;SHT31;59251;51.326;12.370;2022-09-09T14:28:31;19.26;75.55
71436;SHT31;59251;51.326;12.370;2022-09-09T14:31:02;19.24;74.46
71436;SHT31;59251;51.326;12.370;2022-09-09T14:33:29;19.29;77.10
71436;SHT31;59251;51.326;12.370;2022-09-09T14:35:59;19.42;76.22
71436;SHT31;59251;51.326;12.370;2022-09-09T14:38:26;19.53;76.80
71436;SHT31;59251;51.326;12.370;2022-09-09T14:40:53;19.51;75.52
71436;SHT31;59251;51.326;12.370;2022-09-09T14:43:19;19.51;76.79
71436;SHT31;59251;51.326;12.370;2022-09-09T14:45:45;19.70;76.22
71436;SHT31;59251;51.326;12.370;2022-09-09T14:48:11;19.60;77.52
71436;SHT31;59251;51.326;12.370;2022-09-09T14:50:36;19.88;75.66
71436;SHT31;59251;51.326;12.370;2022-09-09T14:53:05;19.87;77.06
71436;SHT31;59251;51.326;12.370;2022-09-09T14:55:30;20.09;75.25
71436;SHT31;59251;51.326;12.370;2022-09-09T14:57:56;20.35;72.81
71436;SHT31;59251;51.326;12.370;2022-09-09T15:00:21;21.18;70.55
71436;SHT31;59251;51.326;12.370;2022-09-09T15:02:47;22.51;66.89
71436;SHT31;59251;51.326;12.370;2022-09-09T15:05:12;23.91;62.77
71436;SHT31;59251;51.326;12.370;2022-09-09T15:07:38;24.26;61.41
71436;SHT31;59251;51.326;12.370;2022-09-09T15:10:04;24.97;59.79
71436;SHT31;59251;51.326;12.370;2022-09-09T15:12:30;25.52;58.04
71436;SHT31;59251;51.326;12.370;2022-09-09T15:14:55;24.99;58.82
71436;SHT31;59251;51.326;12.370;2022-09-09T15:17:21;24.97;60.21
71436;SHT31;59251;51.326;12.370;2022-09-09T15:19:46;24.95;60.22
71436;SHT31;59251;51.326;12.370;2022-09-09T15:22:12;25.45;60.57
71436;SHT31;59251;51.326;12.370;2022-09-09T15:24:37;25.74;59.63
71436;SHT31;59251;51.326;12.370;2022-09-09T15:27:02;25.72;59.04
71436;SHT31;59251;51.326;12.370;2022-09-09T15:29:28;25.90;57.92
71436;SHT31;59251;51.326;12.370;2022-09-09T15:31:54;26.65;55.09
71436;SHT31;59251;51.326;12.370;2022-09-09T15:34:20;27.99;51.01
71436;SHT31;59251;51.326;12.370;2022-09-09T15:36:46;27.22;52.79
71436;SHT31;59251;51.326;12.370;2022-09-09T15:39:13;24.49;58.45
71436;SHT31;59251;51.326;12.370;2022-09-09T15:41:41;24.35;58.74
71436;SHT31;59251;51.326;12.370;2022-09-09T15:44:07;24.81;57.92
71436;SHT31;59251;51.326;12.370;2022-09-09T15:46:44;25.29;56.01
71436;SHT31;59251;51.326;12.370;2022-09-09T15:49:16;23.98;59.38
71436;SHT31;59251;51.326;12.370;2022-09-09T15:51:54;23.53;59.45
71436;SHT31;59251;51.326;12.370;2022-09-09T15:54:21;23.74;59.61
71436;SHT31;59251;51.326;12.370;2022-09-09T15:56:51;23.06;60.83
71436;SHT31;59251;51.326;12.370;2022-09-09T15:59:17;23.12;61.10
71436;SHT31;59251;51.326;12.370;2022-09-09T16:01:43;23.14;61.78
71436;SHT31;59251;51.326;12.370;2022-09-09T16:04:09;22.94;61.03
71436;SHT31;59251;51.326;12.370;2022-09-09T16:06:34;22.99;60.94
71436;SHT31;59251;51.326;12.370;2022-09-09T16:09:03;22.52;62.15
71436;SHT31;59251;51.326;12.370;2022-09-09T16:11:32;22.48;61.90
71436;SHT31;59251;51.326;12.370;2022-09-09T16:13:58;22.75;60.00
71436;SHT31;59251;51.326;12.370;2022-09-09T16:16:25;22.55;60.91
71436;SHT31;59251;51.326;12.370;2022-09-09T16:18:53;22.30;61.84
71436;SHT31;59251;51.326;12.370;2022-09-09T16:21:24;22.34;61.19
71436;SHT31;59251;51.326;12.370;2022-09-09T16:23:53;22.22;61.65
71436;SHT31;59251;51.326;12.370;2022-09-09T16:26:19;22.27;61.69
71436;SHT31;59251;51.326;12.370;2022-09-09T16:28:46;22.04;61.06
71436;SHT31;59251;51.326;12.370;2022-09-09T16:31:16;22.20;60.49
71436;SHT31;59251;51.326;12.370;2022-09-09T16:33:43;22.00;61.28
71436;SHT31;59251;51.326;12.370;2022-09-09T16:36:11;21.82;61.67
71436;SHT31;59251;51.326;12.370;2022-09-09T16:38:37;21.73;61.67
71436;SHT31;59251;51.326;12.370;2022-09-09T16:41:04;21.61;62.49
71436;SHT31;59251;51.326;12.370;2022-09-09T16:43:34;21.43;63.48
71436;SHT31;59251;51.326;12.370;2022-09-09T16:46:00;21.65;62.82
71436;SHT31;59251;51.326;12.370;2022-09-09T16:48:30;21.12;64.34
71436;SHT31;59251;51.326;12.370;2022-09-09T16:51:01;21.11;64.14
71436;SHT31;59251;51.326;12.370;2022-09-09T16:53:27;21.03;64.78
71436;SHT31;59251;51.326;12.370;2022-09-09T16:55:52;21.08;64.34
71436;SHT31;59251;51.326;12.370;2022-09-09T16:58:18;20.76;65.63
71436;SHT31;59251;51.326;12.370;2022-09-09T17:00:43;20.76;64.90
71436;SHT31;59251;51.326;12.370;2022-09-09T17:03:12;20.70;64.97
71436;SHT31;59251;51.326;12.370;2022-09-09T17:05:41;20.65;65.56
71436;SHT31;59251;51.326;12.370;2022-09-09T17:08:06;20.63;64.03
71436;SHT31;59251;51.326;12.370;2022-09-09T17:10:32;20.57;64.35
71436;SHT31;59251;51.326;12.370;2022-09-09T17:12:57;20.57;63.44
71436;SHT31;59251;51.326;12.370;2022-09-09T17:15:22;20.45;63.71
71436;SHT31;59251;51.326;12.370;2022-09-09T17:17:48;20.49;64.07
71436;SHT31;59251;51.326;12.370;2022-09-09T17:20:18;20.32;64.30
71436;SHT31;59251;51.326;12.370;2022-09-09T17:22:43;20.24;64.42